sensor_id;sensor_type;location;lat;lon;timestamp;noise_LAeq;noise_LA_min;noise_LA_max;noise_LA01;noise_LA95
72276;Laerm;61204;49.980;8.358;2024-02-21T00:01:18;52.80;45.96;63.04;;
72276;Laerm;61204;49.980;8.358;2024-02-21T00:03:45;51.34;42.79;58.62;;
72276;Laerm;61204;49.980;8.358;2024-02-21T00:06:10;53.00;45.49;62.09;;
72276;Laerm;61204;49.980;8.358;2024-02-21T00:08:38;53.13;46.16;61.79;;
72276;Laerm;61204;49.980;8.358;2024-02-21T00:11:04;53.67;46.82;66.12;;
72276;Laerm;61204;49.980;8.358;2024-02-21T00:13:32;52.74;45.74;65.37;;
72276;Laerm;61204;49.980;8.358;2024-02-21T00:16:01;51.06;44.20;68.79;;
72276;Laerm;61204;49.980;8.358;2024-02-21T00:18:27;52.31;45.54;65.48;;
72276;Laerm;61204;49.980;8.358;2024-02-21T00:20:52;51.62;44.89;62.54;;
72276;Laerm;61204;49.980;8.358;2024-02-21T00:23:18;52.37;45.54;63.40;;
72276;Laerm;61204;49.980;8.358;2024-02-21T00:25:46;51.16;45.35;62.84;;
72276;Laerm;61204;49.980;8.358;2024-02-21T00:28:14;52.56;46.45;61.91;;
72276;Laerm;61204;49.980;8.358;2024-02-21T00:30:42;52.53;46.87;65.82;;
72276;Laerm;61204;49.980;8.358;2024-02-21T00:33:08;50.32;43.13;59.13;;
72276;Laerm;61204;49.980;8.358;2024-02-21T00:35:33;51.46;42.91;60.49;;
72276;Laerm;61204;49.980;8.358;2024-02-21T00:37:59;52.27;44.54;63.40;;
72276;Laerm;61204;49.980;8.358;2024-02-21T00:40:25;52.39;45.28;63.32;;
72276;Laerm;61204;49.980;8.358;2024-02-21T00:42:50;51.79;44.04;60.96;;
72276;Laerm;61204;49.980;8.358;2024-02-21T00:45:16;51.04;45.12;60.41;;
72276;Laerm;61204;49.980;8.358;2024-02-21T00:47:41;51.61;43.31;63.61;;
72276;Laerm;61204;49.980;8.358;2024-02-21T00:50:08;53.96;45.97;65.35;;
72276;Laerm;61204;49.980;8.358;2024-02-21T00:52:34;53.00;46.68;62.69;;
72276;Laerm;61204;49.980;8.358;2024-02-21T00:55:00;51.34;44.96;64.17;;
72276;Laerm;61204;49.980;8.358;2024-02-21T00:57:26;52.45;46.06;63.04;;
72276;Laerm;61204;49.980;8.358;2024-02-21T00:59:51;52.26;43.48;61.67;;
72276;Laerm;61204;49.980;8.358;2024-02-21T01:02:17;52.33;44.26;67.19;;
72276;Laerm;61204;49.980;8.358;2024-02-21T01:04:45;50.67;41.28;61.95;;
72276;Laerm;61204;49.980;8.358;2024-02-21T01:07:11;50.36;43.52;62.42;;
72276;Laerm;61204;49.980;8.358;2024-02-21T01:09:36;54.43;44.72;70.38;;
72276;Laerm;61204;49.980;8.358;2024-02-21T01:12:02;56.71;43.61;77.59;;
72276;Laerm;61204;49.980;8.358;2024-02-21T01:14:27;53.54;46.56;70.44;;
72276;Laerm;61204;49.980;8.358;2024-02-21T01:16:55;51.55;45.71;63.96;;
72276;Laerm;61204;49.980;8.358;2024-02-21T01:19:21;52.29;44.79;63.51;;
72276;Laerm;61204;49.980;8.358;2024-02-21T01:21:46;51.06;42.15;64.42;;
72276;Laerm;61204;49.980;8.358;2024-02-21T01:24:12;53.19;47.55;64.40;;
72276;Laerm;61204;49.980;8.358;2024-02-21T01:26:40;51.32;45.35;58.43;;
72276;Laerm;61204;49.980;8.358;2024-02-21T01:29:06;50.19;43.55;58.19;;
72276;Laerm;61204;49.980;8.358;2024-02-21T01:31:32;48.75;40.59;64.76;;
72276;Laerm;61204;49.980;8.358;2024-02-21T01:33:57;52.77;47.47;65.10;;
72276;Laerm;61204;49.980;8.358;2024-02-21T01:36:23;52.84;47.13;60.71;;
72276;Laerm;61204;49.980;8.358;2024-02-21T01:38:49;53.44;47.56;61.04;;
72276;Laerm;61204;49.980;8.358;2024-02-21T01:41:14;51.74;46.33;58.93;;
72276;Laerm;61204;49.980;8.358;2024-02-21T01:43:41;53.09;46.88;62.65;;
72276;Laerm;61204;49.980;8.358;2024-02-21T01:46:10;51.69;46.25;59.03;;
72276;Laerm;61204;49.980;8.358;2024-02-21T01:48:35;51.25;44.09;66.05;;
72276;Laerm;61204;49.980;8.358;2024-02-21T01:51:04;48.50;41.78;56.66;;
72276;Laerm;61204;49.980;8.358;2024-02-21T01:53:37;52.92;46.17;76.31;;
72276;Laerm;61204;49.980;8.358;2024-02-21T01:56:05;52.17;46.38;58.34;;
72276;Laerm;61204;49.980;8.358;2024-02-21T01:58:36;52.37;45.09;63.84;;
72276;Laerm;61204;49.980;8.358;2024-02-21T02:01:03;51.66;44.60;58.40;;
72276;Laerm;61204;49.980;8.358;2024-02-21T02:03:29;50.20;42.46;61.95;;
72276;Laerm;61204;49.980;8.358;2024-02-21T02:05:55;53.16;47.57;61.10;;
72276;Laerm;61204;49.980;8.358;2024-02-21T02:08:21;52.78;47.11;59.16;;
72276;Laerm;61204;49.980;8.358;2024-02-21T02:10:48;50.58;44.61;59.47;;
72276;Laerm;61204;49.980;8.358;2024-02-21T02:13:17;54.02;46.54;64.24;;
72276;Laerm;61204;49.980;8.358;2024-02-21T02:15:46;52.64;47.45;60.44;;
72276;Laerm;61204;49.980;8.358;2024-02-21T02:18:13;53.62;47.26;60.07;;
72276;Laerm;61204;49.980;8.358;2024-02-21T02:20:45;50.67;45.62;56.39;;
72276;Laerm;61204;49.980;8.358;2024-02-21T02:23:33;53.89;48.46;63.18;;
72276;Laerm;61204;49.980;8.358;2024-02-21T02:25:59;52.31;46.10;60.25;;
72276;Laerm;61204;49.980;8.358;2024-02-21T02:28:26;50.29;43.35;67.08;;
72276;Laerm;61204;49.980;8.358;2024-02-21T02:30:52;49.58;41.91;58.10;;
72276;Laerm;61204;49.980;8.358;2024-02-21T02:33:18;50.11;43.73;56.86;;
72276;Laerm;61204;49.980;8.358;2024-02-21T02:35:45;51.00;43.27;58.81;;
72276;Laerm;61204;49.980;8.358;2024-02-21T02:38:11;52.79;47.08;57.64;;
72276;Laerm;61204;49.980;8.358;2024-02-21T02:40:41;52.34;45.64;59.77;;
72276;Laerm;61204;49.980;8.358;2024-02-21T02:43:07;52.28;46.00;60.12;;
72276;Laerm;61204;49.980;8.358;2024-02-21T02:45:33;54.35;48.87;62.11;;
72276;Laerm;61204;49.980;8.358;2024-02-21T02:47:59;53.98;48.54;60.79;;
72276;Laerm;61204;49.980;8.358;2024-02-21T02:50:27;53.54;45.82;61.92;;
72276;Laerm;61204;49.980;8.358;2024-02-21T02:52:54;52.59;46.35;59.91;;
72276;Laerm;61204;49.980;8.358;2024-02-21T02:55:23;52.09;47.31;57.73;;
72276;Laerm;61204;49.980;8.358;2024-02-21T02:57:48;51.69;46.64;58.01;;
72276;Laerm;61204;49.980;8.358;2024-02-21T03:00:15;51.41;45.97;60.04;;
72276;Laerm;61204;49.980;8.358;2024-02-21T03:02:44;51.47;45.08;60.16;;
72276;Laerm;61204;49.980;8.358;2024-02-21T03:05:18;51.34;45.96;58.27;;
72276;Laerm;61204;49.980;8.358;2024-02-21T03:07:45;52.91;45.93;59.07;;
72276;Laerm;61204;49.980;8.358;2024-02-21T03:10:11;52.62;45.49;59.45;;
72276;Laerm;61204;49.980;8.358;2024-02-21T03:12:37;52.88;46.39;61.71;;
72276;Laerm;61204;49.980;8.358;2024-02-21T03:15:05;54.58;50.42;60.81;;
72276;Laerm;61204;49.980;8.358;2024-02-21T03:17:32;51.52;45.89;59.10;;
72276;Laerm;61204;49.980;8.358;2024-02-21T03:20:00;54.68;47.98;64.66;;
72276;Laerm;61204;49.980;8.358;2024-02-21T03:22:26;55.19;48.75;67.42;;
72276;Laerm;61204;49.980;8.358;2024-02-21T03:24:51;54.25;49.02;60.46;;
72276;Laerm;61204;49.980;8.358;2024-02-21T03:27:17;54.17;47.89;65.06;;
72276;Laerm;61204;49.980;8.358;2024-02-21T03:29:43;54.00;47.36;66.91;;
72276;Laerm;61204;49.980;8.358;2024-02-21T03:32:09;54.86;49.68;64.94;;
72276;Laerm;61204;49.980;8.358;2024-02-21T03:34:35;55.67;50.46;68.73;;
72276;Laerm;61204;49.980;8.358;2024-02-21T03:37:01;55.36;48.82;63.31;;
72276;Laerm;61204;49.980;8.358;2024-02-21T03:39:27;54.79;49.15;69.91;;
72276;Laerm;61204;49.980;8.358;2024-02-21T03:41:52;54.78;48.55;67.53;;
72276;Laerm;61204;49.980;8.358;2024-02-21T03:44:18;54.95;49.70;65.08;;
72276;Laerm;61204;49.980;8.358;2024-02-21T03:46:43;55.16;49.17;67.43;;
72276;Laerm;61204;49.980;8.358;2024-02-21T03:49:09;56.30;51.64;63.83;;
72276;Laerm;61204;49.980;8.358;2024-02-21T03:51:34;54.43;50.62;61.84;;
72276;Laerm;61204;49.980;8.358;2024-02-21T03:54:00;53.93;50.00;60.00;;
72276;Laerm;61204;49.980;8.358;2024-02-21T03:56:26;55.60;50.84;61.97;;
72276;Laerm;61204;49.980;8.358;2024-02-21T03:58:51;55.48;50.65;60.53;;
72276;Laerm;61204;49.980;8.358;2024-02-21T04:01:17;55.36;48.32;61.95;;
72276;Laerm;61204;49.980;8.358;2024-02-21T04:03:45;56.24;50.52;62.27;;
72276;Laerm;61204;49.980;8.358;2024-02-21T04:06:11;54.66;49.09;60.91;;
72276;Laerm;61204;49.980;8.358;2024-02-21T04:08:38;55.48;50.81;61.21;;
72276;Laerm;61204;49.980;8.358;2024-02-21T04:11:04;55.37;50.83;61.68;;
72276;Laerm;61204;49.980;8.358;2024-02-21T04:13:31;56.80;52.41;61.66;;
72276;Laerm;61204;49.980;8.358;2024-02-21T04:15:57;56.69;52.16;61.27;;
72276;Laerm;61204;49.980;8.358;2024-02-21T04:18:23;56.73;52.30;62.83;;
72276;Laerm;61204;49.980;8.358;2024-02-21T04:20:48;55.58;51.56;60.54;;
72276;Laerm;61204;49.980;8.358;2024-02-21T04:23:14;56.42;51.81;62.74;;
72276;Laerm;61204;49.980;8.358;2024-02-21T04:25:39;55.86;52.17;61.52;;
72276;Laerm;61204;49.980;8.358;2024-02-21T04:28:05;57.04;52.81;62.61;;
72276;Laerm;61204;49.980;8.358;2024-02-21T04:30:30;56.83;52.43;61.22;;
72276;Laerm;61204;49.980;8.358;2024-02-21T04:32:56;56.48;52.28;65.97;;
72276;Laerm;61204;49.980;8.358;2024-02-21T04:35:22;56.05;52.38;60.22;;
72276;Laerm;61204;49.980;8.358;2024-02-21T04:37:47;56.18;51.25;62.61;;
72276;Laerm;61204;49.980;8.358;2024-02-21T04:40:13;57.81;52.99;65.21;;
72276;Laerm;61204;49.980;8.358;2024-02-21T04:42:39;57.36;53.52;62.63;;
72276;Laerm;61204;49.980;8.358;2024-02-21T04:45:06;59.09;53.97;73.91;;
72276;Laerm;61204;49.980;8.358;2024-02-21T04:47:34;58.71;53.08;72.73;;
72276;Laerm;61204;49.980;8.358;2024-02-21T04:50:02;57.12;51.91;68.51;;
72276;Laerm;61204;49.980;8.358;2024-02-21T04:52:28;57.36;53.59;65.83;;
72276;Laerm;61204;49.980;8.358;2024-02-21T04:54:55;57.73;54.27;62.22;;
72276;Laerm;61204;49.980;8.358;2024-02-21T04:57:21;57.72;53.46;63.13;;
72276;Laerm;61204;49.980;8.358;2024-02-21T04:59:47;57.51;53.46;64.23;;
72276;Laerm;61204;49.980;8.358;2024-02-21T05:02:14;58.30;53.88;63.88;;
72276;Laerm;61204;49.980;8.358;2024-02-21T05:04:39;58.47;54.22;64.67;;
72276;Laerm;61204;49.980;8.358;2024-02-21T05:07:07;58.18;54.26;64.73;;
72276;Laerm;61204;49.980;8.358;2024-02-21T05:09:33;57.94;54.24;63.71;;
72276;Laerm;61204;49.980;8.358;2024-02-21T05:11:58;58.98;54.55;65.13;;
72276;Laerm;61204;49.980;8.358;2024-02-21T05:14:25;58.00;54.30;63.67;;
72276;Laerm;61204;49.980;8.358;2024-02-21T05:16:52;57.87;54.01;66.64;;
72276;Laerm;61204;49.980;8.358;2024-02-21T05:19:18;58.34;53.69;66.46;;
72276;Laerm;61204;49.980;8.358;2024-02-21T05:21:45;58.68;53.28;68.22;;
72276;Laerm;61204;49.980;8.358;2024-02-21T05:24:15;59.79;54.31;72.30;;
72276;Laerm;61204;49.980;8.358;2024-02-21T05:26:41;59.34;54.94;72.86;;
72276;Laerm;61204;49.980;8.358;2024-02-21T05:29:06;58.42;54.97;65.22;;
72276;Laerm;61204;49.980;8.358;2024-02-21T05:34:16;58.70;54.57;67.98;;
72276;Laerm;61204;49.980;8.358;2024-02-21T05:36:42;59.96;56.11;65.70;;
72276;Laerm;61204;49.980;8.358;2024-02-21T05:39:08;59.17;54.05;71.88;;
72276;Laerm;61204;49.980;8.358;2024-02-21T05:41:33;58.96;54.69;74.26;;
72276;Laerm;61204;49.980;8.358;2024-02-21T05:43:59;60.75;54.84;80.17;;
72276;Laerm;61204;49.980;8.358;2024-02-21T05:46:24;59.40;55.45;69.36;;
72276;Laerm;61204;49.980;8.358;2024-02-21T05:48:50;58.42;55.00;64.82;;
72276;Laerm;61204;49.980;8.358;2024-02-21T05:51:15;58.81;55.02;64.05;;
72276;Laerm;61204;49.980;8.358;2024-02-21T05:53:41;59.20;54.51;65.34;;
72276;Laerm;61204;49.980;8.358;2024-02-21T05:56:11;58.92;55.11;66.16;;
72276;Laerm;61204;49.980;8.358;2024-02-21T05:58:40;59.05;54.19;72.69;;
72276;Laerm;61204;49.980;8.358;2024-02-21T06:01:09;59.02;54.80;67.52;;
72276;Laerm;61204;49.980;8.358;2024-02-21T06:03:35;58.79;54.60;70.98;;
72276;Laerm;61204;49.980;8.358;2024-02-21T06:06:02;59.23;55.04;71.77;;
72276;Laerm;61204;49.980;8.358;2024-02-21T06:08:28;58.54;54.44;68.83;;
72276;Laerm;61204;49.980;8.358;2024-02-21T06:10:54;58.29;54.45;66.03;;
72276;Laerm;61204;49.980;8.358;2024-02-21T06:13:28;57.51;54.25;60.19;;
72276;Laerm;61204;49.980;8.358;2024-02-21T06:15:54;57.67;54.23;62.22;;
72276;Laerm;61204;49.980;8.358;2024-02-21T06:18:20;57.62;54.61;60.83;;
72276;Laerm;61204;49.980;8.358;2024-02-21T06:20:46;58.74;55.83;70.37;;
72276;Laerm;61204;49.980;8.358;2024-02-21T06:23:15;58.01;54.85;64.83;;
72276;Laerm;61204;49.980;8.358;2024-02-21T06:25:42;58.52;55.20;62.02;;
72276;Laerm;61204;49.980;8.358;2024-02-21T06:28:08;59.61;55.68;65.86;;
72276;Laerm;61204;49.980;8.358;2024-02-21T06:30:33;59.36;56.19;65.40;;
72276;Laerm;61204;49.980;8.358;2024-02-21T06:33:03;58.38;55.30;64.89;;
72276;Laerm;61204;49.980;8.358;2024-02-21T06:35:29;58.84;54.99;65.03;;
72276;Laerm;61204;49.980;8.358;2024-02-21T06:37:55;58.90;54.96;64.42;;
72276;Laerm;61204;49.980;8.358;2024-02-21T06:40:23;58.89;54.27;64.58;;
72276;Laerm;61204;49.980;8.358;2024-02-21T06:42:49;58.81;54.44;65.85;;
72276;Laerm;61204;49.980;8.358;2024-02-21T06:45:16;58.44;54.12;62.48;;
72276;Laerm;61204;49.980;8.358;2024-02-21T06:47:42;58.54;55.34;70.32;;
72276;Laerm;61204;49.980;8.358;2024-02-21T06:50:10;58.80;55.30;69.96;;
72276;Laerm;61204;49.980;8.358;2024-02-21T06:52:39;57.91;54.52;64.06;;
72276;Laerm;61204;49.980;8.358;2024-02-21T06:55:04;57.98;54.04;63.20;;
72276;Laerm;61204;49.980;8.358;2024-02-21T06:57:30;57.70;54.16;65.15;;
72276;Laerm;61204;49.980;8.358;2024-02-21T06:59:58;58.10;53.93;64.25;;
72276;Laerm;61204;49.980;8.358;2024-02-21T07:02:23;58.02;53.93;64.33;;
72276;Laerm;61204;49.980;8.358;2024-02-21T07:04:49;58.69;53.89;77.35;;
72276;Laerm;61204;49.980;8.358;2024-02-21T07:07:17;58.23;54.20;64.02;;
72276;Laerm;61204;49.980;8.358;2024-02-21T07:09:43;59.31;55.65;69.76;;
72276;Laerm;61204;49.980;8.358;2024-02-21T07:12:08;58.92;54.79;67.50;;
72276;Laerm;61204;49.980;8.358;2024-02-21T07:14:36;57.77;54.34;61.76;;
72276;Laerm;61204;49.980;8.358;2024-02-21T07:17:02;57.43;53.44;64.80;;
72276;Laerm;61204;49.980;8.358;2024-02-21T07:19:27;57.21;54.02;64.27;;
72276;Laerm;61204;49.980;8.358;2024-02-21T07:21:53;57.86;54.04;64.31;;
72276;Laerm;61204;49.980;8.358;2024-02-21T07:24:19;57.03;53.51;61.60;;
72276;Laerm;61204;49.980;8.358;2024-02-21T07:26:44;57.21;53.54;76.50;;
72276;Laerm;61204;49.980;8.358;2024-02-21T07:29:10;57.26;53.57;65.24;;
72276;Laerm;61204;49.980;8.358;2024-02-21T07:31:43;57.84;53.93;65.56;;
72276;Laerm;61204;49.980;8.358;2024-02-21T07:34:10;58.09;53.96;64.59;;
72276;Laerm;61204;49.980;8.358;2024-02-21T07:36:39;57.59;52.64;65.45;;
72276;Laerm;61204;49.980;8.358;2024-02-21T07:39:04;57.65;53.72;65.82;;
72276;Laerm;61204;49.980;8.358;2024-02-21T07:41:31;57.77;52.94;67.77;;
72276;Laerm;61204;49.980;8.358;2024-02-21T07:43:57;56.77;52.58;65.05;;
72276;Laerm;61204;49.980;8.358;2024-02-21T07:46:22;57.36;52.39;72.97;;
72276;Laerm;61204;49.980;8.358;2024-02-21T07:48:48;57.10;52.52;71.24;;
72276;Laerm;61204;49.980;8.358;2024-02-21T07:51:16;57.78;53.44;72.94;;
72276;Laerm;61204;49.980;8.358;2024-02-21T07:53:46;57.71;54.17;69.41;;
72276;Laerm;61204;49.980;8.358;2024-02-21T07:56:14;58.89;52.44;79.93;;
72276;Laerm;61204;49.980;8.358;2024-02-21T07:58:41;57.76;52.40;72.88;;
72276;Laerm;61204;49.980;8.358;2024-02-21T08:01:08;57.42;52.36;76.48;;
72276;Laerm;61204;49.980;8.358;2024-02-21T08:03:34;62.33;51.45;79.76;;
72276;Laerm;61204;49.980;8.358;2024-02-21T08:06:00;54.83;50.78;59.90;;
72276;Laerm;61204;49.980;8.358;2024-02-21T08:08:26;56.85;52.58;65.30;;
72276;Laerm;61204;49.980;8.358;2024-02-21T08:10:54;56.91;53.08;68.18;;
72276;Laerm;61204;49.980;8.358;2024-02-21T08:13:19;56.43;51.85;68.50;;
72276;Laerm;61204;49.980;8.358;2024-02-21T08:15:47;57.54;52.17;75.72;;
72276;Laerm;61204;49.980;8.358;2024-02-21T08:18:12;56.18;52.77;62.01;;
72276;Laerm;61204;49.980;8.358;2024-02-21T08:20:38;56.59;52.36;64.23;;
72276;Laerm;61204;49.980;8.358;2024-02-21T08:23:03;56.50;52.29;64.17;;
72276;Laerm;61204;49.980;8.358;2024-02-21T08:25:29;56.32;51.63;63.24;;
72276;Laerm;61204;49.980;8.358;2024-02-21T08:27:59;57.18;53.10;66.51;;
72276;Laerm;61204;49.980;8.358;2024-02-21T08:30:25;56.57;52.36;64.40;;
72276;Laerm;61204;49.980;8.358;2024-02-21T08:32:51;56.77;51.75;65.43;;
72276;Laerm;61204;49.980;8.358;2024-02-21T08:35:17;56.69;53.26;62.01;;
72276;Laerm;61204;49.980;8.358;2024-02-21T08:37:48;56.48;52.93;62.81;;
72276;Laerm;61204;49.980;8.358;2024-02-21T08:40:14;56.55;51.98;72.68;;
72276;Laerm;61204;49.980;8.358;2024-02-21T08:42:45;61.80;52.62;77.30;;
72276;Laerm;61204;49.980;8.358;2024-02-21T08:45:11;63.06;53.65;87.35;;
72276;Laerm;61204;49.980;8.358;2024-02-21T08:47:39;57.48;50.30;73.11;;
72276;Laerm;61204;49.980;8.358;2024-02-21T08:50:09;56.08;51.73;62.55;;
72276;Laerm;61204;49.980;8.358;2024-02-21T08:52:36;57.43;53.56;64.91;;
72276;Laerm;61204;49.980;8.358;2024-02-21T08:55:01;57.75;53.55;66.27;;
72276;Laerm;61204;49.980;8.358;2024-02-21T08:57:27;57.17;53.17;70.54;;
72276;Laerm;61204;49.980;8.358;2024-02-21T08:59:53;57.04;52.86;69.94;;
72276;Laerm;61204;49.980;8.358;2024-02-21T09:02:19;57.17;52.68;65.71;;
72276;Laerm;61204;49.980;8.358;2024-02-21T09:04:44;57.42;53.11;79.34;;
72276;Laerm;61204;49.980;8.358;2024-02-21T09:07:11;55.44;50.96;68.84;;
72276;Laerm;61204;49.980;8.358;2024-02-21T09:09:37;55.83;51.25;64.09;;
72276;Laerm;61204;49.980;8.358;2024-02-21T09:12:07;55.29;50.19;62.46;;
72276;Laerm;61204;49.980;8.358;2024-02-21T09:14:37;57.06;51.32;64.19;;
72276;Laerm;61204;49.980;8.358;2024-02-21T09:17:06;55.49;51.49;66.29;;
72276;Laerm;61204;49.980;8.358;2024-02-21T09:19:33;56.72;52.88;62.50;;
72276;Laerm;61204;49.980;8.358;2024-02-21T09:22:01;57.68;52.71;73.28;;
72276;Laerm;61204;49.980;8.358;2024-02-21T09:24:31;57.87;51.93;77.19;;
72276;Laerm;61204;49.980;8.358;2024-02-21T09:26:56;61.54;51.89;82.54;;
72276;Laerm;61204;49.980;8.358;2024-02-21T09:29:25;61.88;52.99;82.59;;
72276;Laerm;61204;49.980;8.358;2024-02-21T09:31:50;64.88;53.77;84.76;;
72276;Laerm;61204;49.980;8.358;2024-02-21T09:34:16;63.56;53.41;79.91;;
72276;Laerm;61204;49.980;8.358;2024-02-21T09:36:42;59.14;52.23;73.61;;
72276;Laerm;61204;49.980;8.358;2024-02-21T09:39:08;59.10;52.92;77.54;;
72276;Laerm;61204;49.980;8.358;2024-02-21T09:41:42;62.04;53.08;83.25;;
72276;Laerm;61204;49.980;8.358;2024-02-21T09:44:12;57.84;51.40;75.46;;
72276;Laerm;61204;49.980;8.358;2024-02-21T09:46:52;58.42;52.21;73.34;;
72276;Laerm;61204;49.980;8.358;2024-02-21T09:49:34;56.78;51.04;71.13;;
72276;Laerm;61204;49.980;8.358;2024-02-21T09:52:05;56.09;51.50;72.75;;
72276;Laerm;61204;49.980;8.358;2024-02-21T09:54:34;58.33;51.92;80.53;;
72276;Laerm;61204;49.980;8.358;2024-02-21T09:57:02;56.54;52.07;71.17;;
72276;Laerm;61204;49.980;8.358;2024-02-21T09:59:32;64.03;52.84;82.20;;
72276;Laerm;61204;49.980;8.358;2024-02-21T10:01:58;57.45;52.72;68.00;;
72276;Laerm;61204;49.980;8.358;2024-02-21T10:04:27;59.62;53.30;75.92;;
72276;Laerm;61204;49.980;8.358;2024-02-21T10:06:56;63.88;51.76;84.92;;
72276;Laerm;61204;49.980;8.358;2024-02-21T10:09:26;57.58;52.01;75.72;;
72276;Laerm;61204;49.980;8.358;2024-02-21T10:12:12;58.49;52.58;72.96;;
72276;Laerm;61204;49.980;8.358;2024-02-21T10:14:38;59.01;54.12;66.47;;
72276;Laerm;61204;49.980;8.358;2024-02-21T10:17:04;61.41;51.27;79.01;;
72276;Laerm;61204;49.980;8.358;2024-02-21T10:19:35;58.61;51.21;76.75;;
72276;Laerm;61204;49.980;8.358;2024-02-21T10:22:10;56.35;51.68;70.99;;
72276;Laerm;61204;49.980;8.358;2024-02-21T10:24:37;58.03;51.09;75.40;;
72276;Laerm;61204;49.980;8.358;2024-02-21T10:27:09;58.45;51.82;75.85;;
72276;Laerm;61204;49.980;8.358;2024-02-21T10:29:40;57.38;53.32;70.20;;
72276;Laerm;61204;49.980;8.358;2024-02-21T10:32:12;62.50;52.36;79.13;;
72276;Laerm;61204;49.980;8.358;2024-02-21T10:34:41;59.63;52.72;76.32;;
72276;Laerm;61204;49.980;8.358;2024-02-21T10:37:11;57.67;52.88;71.94;;
72276;Laerm;61204;49.980;8.358;2024-02-21T10:39:40;60.14;53.18;79.19;;
72276;Laerm;61204;49.980;8.358;2024-02-21T10:42:21;59.24;53.61;80.68;;
72276;Laerm;61204;49.980;8.358;2024-02-21T10:44:53;58.98;53.99;67.56;;
72276;Laerm;61204;49.980;8.358;2024-02-21T10:47:24;59.33;54.25;76.97;;
72276;Laerm;61204;49.980;8.358;2024-02-21T10:50:03;59.71;53.82;73.03;;
72276;Laerm;61204;49.980;8.358;2024-02-21T10:52:56;61.83;54.02;81.87;;
72276;Laerm;61204;49.980;8.358;2024-02-21T10:55:39;60.10;51.73;81.65;;
72276;Laerm;61204;49.980;8.358;2024-02-21T10:58:09;59.04;53.04;76.64;;
72276;Laerm;61204;49.980;8.358;2024-02-21T11:00:37;57.34;53.22;67.84;;
72276;Laerm;61204;49.980;8.358;2024-02-21T11:03:05;58.29;53.27;73.51;;
72276;Laerm;61204;49.980;8.358;2024-02-21T11:05:33;58.71;54.04;70.46;;
72276;Laerm;61204;49.980;8.358;2024-02-21T11:07:59;57.50;52.19;74.91;;
72276;Laerm;61204;49.980;8.358;2024-02-21T11:10:26;57.03;52.12;74.76;;
72276;Laerm;61204;49.980;8.358;2024-02-21T11:13:14;60.38;52.32;80.33;;
72276;Laerm;61204;49.980;8.358;2024-02-21T11:15:39;59.16;51.71;79.03;;
72276;Laerm;61204;49.980;8.358;2024-02-21T11:18:05;58.35;52.09;72.78;;
72276;Laerm;61204;49.980;8.358;2024-02-21T11:20:38;59.12;55.30;69.56;;
72276;Laerm;61204;49.980;8.358;2024-02-21T11:23:04;59.36;51.79;76.80;;
72276;Laerm;61204;49.980;8.358;2024-02-21T11:25:30;59.44;50.93;78.35;;
72276;Laerm;61204;49.980;8.358;2024-02-21T11:28:04;65.27;53.17;83.55;;
72276;Laerm;61204;49.980;8.358;2024-02-21T11:30:32;66.85;52.56;86.76;;
72276;Laerm;61204;49.980;8.358;2024-02-21T11:33:07;63.11;53.83;86.55;;
72276;Laerm;61204;49.980;8.358;2024-02-21T11:35:35;61.55;53.69;74.97;;
72276;Laerm;61204;49.980;8.358;2024-02-21T11:38:11;64.02;53.29;83.10;;
72276;Laerm;61204;49.980;8.358;2024-02-21T11:40:44;62.17;53.76;79.04;;
72276;Laerm;61204;49.980;8.358;2024-02-21T11:43:10;59.42;54.01;79.00;;
72276;Laerm;61204;49.980;8.358;2024-02-21T11:45:35;57.76;53.88;67.72;;
72276;Laerm;61204;49.980;8.358;2024-02-21T11:48:06;58.85;52.35;73.92;;
72276;Laerm;61204;49.980;8.358;2024-02-21T11:50:35;61.12;52.15;81.39;;
72276;Laerm;61204;49.980;8.358;2024-02-21T11:53:01;57.63;53.55;69.27;;
72276;Laerm;61204;49.980;8.358;2024-02-21T11:55:28;58.74;53.92;73.74;;
72276;Laerm;61204;49.980;8.358;2024-02-21T11:57:55;59.48;52.75;77.21;;
72276;Laerm;61204;49.980;8.358;2024-02-21T12:00:22;58.45;53.34;72.45;;
72276;Laerm;61204;49.980;8.358;2024-02-21T12:02:50;61.81;55.05;78.69;;
72276;Laerm;61204;49.980;8.358;2024-02-21T12:05:16;60.83;54.42;81.34;;
72276;Laerm;61204;49.980;8.358;2024-02-21T12:07:44;60.86;53.99;77.31;;
72276;Laerm;61204;49.980;8.358;2024-02-21T12:10:12;60.43;54.47;76.55;;
72276;Laerm;61204;49.980;8.358;2024-02-21T12:12:39;62.07;54.76;82.29;;
72276;Laerm;61204;49.980;8.358;2024-02-21T12:15:07;58.07;54.73;68.33;;
72276;Laerm;61204;49.980;8.358;2024-02-21T12:17:37;61.04;55.25;75.69;;
72276;Laerm;61204;49.980;8.358;2024-02-21T12:20:04;59.05;54.52;65.14;;
72276;Laerm;61204;49.980;8.358;2024-02-21T12:22:41;58.64;53.35;72.72;;
72276;Laerm;61204;49.980;8.358;2024-02-21T12:25:22;58.84;53.94;69.17;;
72276;Laerm;61204;49.980;8.358;2024-02-21T12:27:52;60.42;56.06;74.43;;
72276;Laerm;61204;49.980;8.358;2024-02-21T12:30:19;60.77;54.67;78.62;;
72276;Laerm;61204;49.980;8.358;2024-02-21T12:32:46;63.52;54.25;75.04;;
72276;Laerm;61204;49.980;8.358;2024-02-21T12:35:12;59.48;54.73;67.49;;
72276;Laerm;61204;49.980;8.358;2024-02-21T12:37:37;58.70;54.60;62.85;;
72276;Laerm;61204;49.980;8.358;2024-02-21T12:40:09;61.02;54.78;76.58;;
72276;Laerm;61204;49.980;8.358;2024-02-21T12:42:36;61.46;55.01;76.56;;
72276;Laerm;61204;49.980;8.358;2024-02-21T12:45:05;60.38;55.02;77.24;;
72276;Laerm;61204;49.980;8.358;2024-02-21T12:47:31;62.63;53.44;80.12;;
72276;Laerm;61204;49.980;8.358;2024-02-21T12:49:56;60.09;55.23;72.53;;
72276;Laerm;61204;49.980;8.358;2024-02-21T12:52:22;59.30;54.62;75.42;;
72276;Laerm;61204;49.980;8.358;2024-02-21T12:54:50;64.32;54.70;77.44;;
72276;Laerm;61204;49.980;8.358;2024-02-21T12:57:17;62.12;55.14;75.64;;
72276;Laerm;61204;49.980;8.358;2024-02-21T12:59:42;59.26;54.99;75.24;;
72276;Laerm;61204;49.980;8.358;2024-02-21T13:02:10;60.02;54.49;78.33;;
72276;Laerm;61204;49.980;8.358;2024-02-21T13:04:38;61.16;54.60;76.04;;
72276;Laerm;61204;49.980;8.358;2024-02-21T13:07:06;60.46;55.31;73.48;;
72276;Laerm;61204;49.980;8.358;2024-02-21T13:09:34;60.57;54.30;77.55;;
72276;Laerm;61204;49.980;8.358;2024-02-21T13:12:03;58.02;53.97;67.96;;
72276;Laerm;61204;49.980;8.358;2024-02-21T13:14:29;59.72;53.71;73.90;;
72276;Laerm;61204;49.980;8.358;2024-02-21T13:16:54;60.05;54.59;71.62;;
72276;Laerm;61204;49.980;8.358;2024-02-21T13:19:20;58.54;53.19;70.10;;
72276;Laerm;61204;49.980;8.358;2024-02-21T13:21:45;60.23;54.13;76.53;;
72276;Laerm;61204;49.980;8.358;2024-02-21T13:24:11;60.87;54.71;73.26;;
72276;Laerm;61204;49.980;8.358;2024-02-21T13:26:39;59.78;55.53;75.97;;
72276;Laerm;61204;49.980;8.358;2024-02-21T13:29:04;58.91;54.91;73.00;;
72276;Laerm;61204;49.980;8.358;2024-02-21T13:31:32;59.39;55.04;76.68;;
72276;Laerm;61204;49.980;8.358;2024-02-21T13:33:58;59.87;54.93;66.53;;
72276;Laerm;61204;49.980;8.358;2024-02-21T13:36:23;59.57;55.27;71.96;;
72276;Laerm;61204;49.980;8.358;2024-02-21T13:38:49;59.34;53.73;71.37;;
72276;Laerm;61204;49.980;8.358;2024-02-21T13:41:16;60.59;55.55;82.96;;
72276;Laerm;61204;49.980;8.358;2024-02-21T13:43:43;60.32;53.77;77.79;;
72276;Laerm;61204;49.980;8.358;2024-02-21T13:46:08;60.11;54.30;73.71;;
72276;Laerm;61204;49.980;8.358;2024-02-21T13:48:36;60.33;55.41;73.56;;